Time;durP1;ratioP1;P1;durP2;ratioP2;P2;SDS_P1;SDS_P2;PMS_P1;PMS_P2;Temp;Humidity;BMP_temperature;BMP_pressure;BME280_temperature;BME280_humidity;BME280_pressure;Samples;Min_cycle;Max_cycle;Signal;HPM_P1;HPM_P2
2022/12/10 00:01:37;;;;;;;33.47;18.70;;;2.80;66.40;;;;;;4993469;28;20100;-48
2022/12/10 00:04:04;;;;;;;34.88;19.92;;;2.80;66.50;;;;;;5000153;28;20045;-52
2022/12/10 00:06:33;;;;;;;37.05;19.50;;;2.80;66.50;;;;;;5010776;28;20038;-48
2022/12/10 00:09:00;;;;;;;32.85;19.20;;;2.80;66.50;;;;;;5005428;28;20056;-52
2022/12/10 00:11:27;;;;;;;38.70;21.40;;;2.80;66.50;;;;;;4998693;28;20046;-49
2022/12/10 00:13:55;;;;;;;33.42;18.10;;;2.70;66.40;;;;;;5002880;28;20069;-51
2022/12/10 00:16:24;;;;;;;31.35;17.08;;;2.70;66.40;;;;;;5007287;28;20046;-48
2022/12/10 00:18:53;;;;;;;29.00;17.42;;;2.70;66.40;;;;;;4990156;28;20395;-50
2022/12/10 00:21:23;;;;;;;34.58;19.80;;;2.70;66.40;;;;;;4999267;28;20057;-49
2022/12/10 00:23:50;;;;;;;36.00;16.88;;;2.60;66.40;;;;;;5003456;28;20051;-53
2022/12/10 00:26:21;;;;;;;30.98;18.58;;;2.60;66.40;;;;;;4989617;28;20133;-49
2022/12/10 00:28:50;;;;;;;29.77;17.92;;;2.60;66.40;;;;;;4996050;28;20501;-53
2022/12/10 00:31:31;;;;;;;30.77;16.88;;;2.60;66.40;;;;;;5002559;28;20844;-50
2022/12/10 00:34:01;;;;;;;21.25;13.30;;;2.60;66.20;;;;;;5010950;28;20056;-53
2022/12/10 00:36:48;;;;;;;28.63;16.40;;;2.50;66.20;;;;;;4995470;28;20073;-52
2022/12/10 00:39:19;;;;;;;30.35;17.50;;;2.50;66.10;;;;;;4985957;28;20680;-52
2022/12/10 00:41:46;;;;;;;29.63;16.40;;;2.50;66.90;;;;;;4997855;28;20069;-54
2022/12/10 00:44:14;;;;;;;28.10;16.73;;;2.50;66.30;;;;;;5007662;28;20046;-51
2022/12/10 00:46:41;;;;;;;29.27;16.00;;;2.60;66.40;;;;;;4991664;28;20137;-52
2022/12/10 00:49:08;;;;;;;31.73;18.45;;;2.50;66.20;;;;;;4990709;28;20561;-49
2022/12/10 00:51:35;;;;;;;26.63;16.25;;;2.40;66.20;;;;;;4996420;28;20141;-50
2022/12/10 00:54:01;;;;;;;30.23;17.33;;;2.40;66.20;;;;;;4983547;28;20542;-50
2022/12/10 00:56:32;;;;;;;29.38;15.90;;;2.40;66.20;;;;;;4994425;28;20694;-51
2022/12/10 00:58:59;;;;;;;32.55;17.75;;;2.40;66.20;;;;;;4989478;28;20043;-49
2022/12/10 01:01:31;;;;;;;27.42;16.20;;;2.30;66.20;;;;;;4994493;28;20045;-51
2022/12/10 01:04:04;;;;;;;29.00;16.55;;;2.40;66.20;;;;;;5010446;28;20037;-49
2022/12/10 01:06:34;;;;;;;31.60;18.23;;;2.30;66.10;;;;;;4990475;28;20057;-53
2022/12/10 01:09:07;;;;;;;31.55;17.55;;;2.30;66.10;;;;;;4998872;28;20523;-52
2022/12/10 01:11:37;;;;;;;34.08;18.33;;;2.30;66.10;;;;;;5009209;28;20145;-51
2022/12/10 01:14:06;;;;;;;40.78;19.05;;;2.30;66.10;;;;;;4994924;28;20070;-52
2022/12/10 01:16:33;;;;;;;35.45;18.00;;;2.30;66.10;;;;;;4986555;28;20052;-51
2022/12/10 01:19:00;;;;;;;31.55;18.35;;;2.20;66.00;;;;;;4997655;28;20064;-48
2022/12/10 01:21:28;;;;;;;30.48;17.75;;;2.20;66.10;;;;;;4989319;28;20038;-52
2022/12/10 01:23:58;;;;;;;34.58;19.33;;;2.20;66.10;;;;;;4991998;28;20046;-53
2022/12/10 01:26:29;;;;;;;28.50;16.97;;;2.20;66.10;;;;;;4997371;28;20577;-53
2022/12/10 01:28:56;;;;;;;31.08;18.05;;;2.10;66.00;;;;;;5000272;28;20414;-55
2022/12/10 01:31:29;;;;;;;31.23;17.92;;;2.20;66.00;;;;;;5003831;28;20060;-52
2022/12/10 01:33:58;;;;;;;24.65;13.27;;;2.10;66.00;;;;;;5000336;28;20076;-49
2022/12/10 01:36:31;;;;;;;27.27;17.38;;;2.10;66.00;;;;;;5003260;28;20037;-52
2022/12/10 01:38:58;;;;;;;31.95;16.88;;;2.10;66.40;;;;;;5005252;28;20116;-51
2022/12/10 01:41:37;;;;;;;33.80;17.88;;;2.10;66.50;;;;;;5012000;28;20072;-51
2022/12/10 01:44:07;;;;;;;38.38;18.80;;;2.10;66.40;;;;;;4999847;28;20133;-53
2022/12/10 01:46:39;;;;;;;31.83;18.17;;;2.00;66.30;;;;;;5006893;28;20049;-48
2022/12/10 01:49:12;;;;;;;31.15;16.63;;;2.00;66.30;;;;;;4995469;28;20116;-52
2022/12/10 01:51:48;;;;;;;35.25;18.65;;;2.00;66.20;;;;;;4991702;28;20082;-51
2022/12/10 01:54:23;;;;;;;33.20;16.75;;;2.00;66.30;;;;;;4993259;28;20058;-52
2022/12/10 01:56:58;;;;;;;32.40;17.67;;;2.00;66.50;;;;;;4999093;28;20042;-50
2022/12/10 01:59:28;;;;;;;36.20;18.50;;;2.00;66.60;;;;;;4993669;28;20523;-53
2022/12/10 02:02:26;;;;;;;31.75;17.15;;;2.00;66.60;;;;;;4989585;28;20073;-51
2022/12/10 02:05:20;;;;;;;39.45;21.58;;;2.00;66.50;;;;;;4998958;28;20045;-49
2022/12/10 02:08:03;;;;;;;37.55;20.40;;;2.00;66.70;;;;;;5001454;28;20050;-49
2022/12/10 02:10:55;;;;;;;38.78;19.02;;;2.00;66.80;;;;;;5002436;28;20057;-52
2022/12/10 02:13:36;;;;;;;38.10;19.52;;;2.00;66.70;;;;;;5014068;28;20070;-49
2022/12/10 02:16:16;;;;;;;38.55;20.55;;;2.00;66.60;;;;;;5004511;28;20038;-51
2022/12/10 02:18:56;;;;;;;36.80;19.73;;;2.00;66.40;;;;;;5013123;28;20112;-52
2022/12/10 02:21:29;;;;;;;38.90;21.13;;;2.10;66.40;;;;;;5000126;28;20066;-48
2022/12/10 02:24:03;;;;;;;38.58;22.25;;;2.00;66.40;;;;;;5002755;28;20097;-51
2022/12/10 02:26:54;;;;;;;39.05;21.73;;;2.10;66.50;;;;;;4977783;28;20046;-49
2022/12/10 02:29:28;;;;;;;40.08;21.67;;;2.00;66.80;;;;;;4988302;28;20054;-53
2022/12/10 02:32:10;;;;;;;35.95;20.42;;;2.00;66.60;;;;;;4996475;28;20084;-49
2022/12/10 02:34:43;;;;;;;28.65;13.70;;;2.00;66.50;;;;;;4993259;28;20046;-52
2022/12/10 02:37:23;;;;;;;38.22;19.73;;;2.00;66.50;;;;;;4990283;28;20054;-50
2022/12/10 02:39:59;;;;;;;36.28;19.88;;;2.00;66.40;;;;;;4992997;28;20462;-50
2022/12/10 02:42:31;;;;;;;36.13;19.85;;;2.00;66.40;;;;;;4993172;28;20034;-48
2022/12/10 02:44:59;;;;;;;38.13;20.77;;;1.90;66.30;;;;;;4991429;28;20650;-52
2022/12/10 02:47:26;;;;;;;38.97;21.00;;;2.00;66.40;;;;;;4988474;28;20129;-49
2022/12/10 02:50:04;;;;;;;37.15;21.05;;;2.00;66.40;;;;;;4986454;28;20051;-52
2022/12/10 02:52:32;;;;;;;36.40;20.35;;;1.90;66.30;;;;;;4993250;28;20038;-50
2022/12/10 02:54:58;;;;;;;39.10;19.60;;;1.90;66.30;;;;;;5000762;28;20069;-49
2022/12/10 02:57:32;;;;;;;43.03;20.58;;;1.90;66.30;;;;;;4989885;28;20039;-52
2022/12/10 03:00:16;;;;;;;38.80;19.53;;;1.90;66.40;;;;;;4997108;28;20498;-48
2022/12/10 03:02:56;;;;;;;42.08;20.30;;;1.90;66.40;;;;;;5002298;28;20065;-49
2022/12/10 03:05:35;;;;;;;37.90;20.00;;;2.00;66.60;;;;;;5012108;28;20038;-50
2022/12/10 03:08:08;;;;;;;37.53;19.95;;;1.90;66.60;;;;;;4987893;28;20094;-48
2022/12/10 03:10:43;;;;;;;39.33;20.10;;;2.00;66.80;;;;;;4990356;28;20037;-53
2022/12/10 03:13:16;;;;;;;37.75;21.63;;;2.00;66.90;;;;;;5003998;28;20050;-49
2022/12/10 03:15:44;;;;;;;40.65;19.75;;;2.10;67.00;;;;;;5002544;28;20046;-50
2022/12/10 03:18:13;;;;;;;38.58;22.27;;;2.10;67.10;;;;;;5006526;28;20422;-49
2022/12/10 03:20:47;;;;;;;38.53;22.73;;;2.10;67.20;;;;;;5005520;28;20046;-48
2022/12/10 03:23:23;;;;;;;40.42;19.05;;;2.10;67.30;;;;;;5000296;28;20518;-49
2022/12/10 03:25:53;;;;;;;37.83;20.55;;;2.20;67.30;;;;;;4986598;28;20046;-54
2022/12/10 03:28:24;;;;;;;38.67;20.70;;;2.20;67.30;;;;;;4997176;28;20043;-51
2022/12/10 03:30:55;;;;;;;45.20;21.77;;;2.30;67.20;;;;;;5002786;28;20120;-49
2022/12/10 03:33:24;;;;;;;41.87;22.93;;;2.40;67.30;;;;;;5011756;28;20053;-49
2022/12/10 03:35:55;;;;;;;43.33;22.38;;;2.40;67.30;;;;;;5001415;28;20042;-49
2022/12/10 03:38:23;;;;;;;46.92;23.08;;;2.40;67.30;;;;;;4996945;28;20045;-49
2022/12/10 03:40:49;;;;;;;47.38;23.50;;;2.40;67.40;;;;;;5002708;28;20061;-49
2022/12/10 03:43:17;;;;;;;44.35;23.40;;;2.50;67.60;;;;;;5011577;28;20049;-49
2022/12/10 03:45:46;;;;;;;47.60;24.95;;;2.50;67.70;;;;;;4996905;28;20042;-50
2022/12/10 03:48:15;;;;;;;47.78;24.27;;;2.60;67.90;;;;;;4999847;28;20038;-49
2022/12/10 03:50:49;;;;;;;45.13;23.27;;;2.60;67.90;;;;;;4996874;28;20053;-53
2022/12/10 03:53:15;;;;;;;48.55;25.38;;;2.70;67.90;;;;;;4989579;28;20049;-48
2022/12/10 03:55:42;;;;;;;46.22;24.58;;;2.70;67.90;;;;;;5000047;28;20395;-51
2022/12/10 03:58:09;;;;;;;48.60;24.50;;;2.70;67.90;;;;;;4991708;28;20487;-48
2022/12/10 04:00:35;;;;;;;43.53;24.13;;;2.80;68.00;;;;;;4991368;28;20057;-51
2022/12/10 04:03:02;;;;;;;44.85;23.30;;;2.80;68.10;;;;;;4989021;28;20050;-52
2022/12/10 04:05:28;;;;;;;45.03;25.15;;;2.90;68.20;;;;;;4993094;28;20487;-49
2022/12/10 04:07:58;;;;;;;43.08;24.45;;;2.90;68.30;;;;;;4999360;28;20450;-48
2022/12/10 04:10:27;;;;;;;44.28;26.35;;;3.00;68.40;;;;;;5010433;28;20060;-50
2022/12/10 04:18:29;;;;;;;51.15;26.85;;;3.20;68.40;;;;;;4995172;28;20548;-50
2022/12/10 04:29:25;;;;;;;42.70;24.08;;;3.40;68.50;;;;;;5020100;28;20469;-53
2022/12/10 04:31:54;;;;;;;49.03;26.85;;;3.40;68.40;;;;;;5025867;28;20045;-53
2022/12/10 04:34:23;;;;;;;41.60;25.38;;;3.40;68.40;;;;;;5030512;28;20083;-52
2022/12/10 04:36:53;;;;;;;50.70;26.02;;;3.50;68.40;;;;;;4997734;28;20051;-52
2022/12/10 04:39:27;;;;;;;48.35;26.15;;;3.50;68.40;;;;;;5021374;28;20599;-51
2022/12/10 04:41:54;;;;;;;;;;;3.50;68.30;;;;;;5015666;28;20546;-53
2022/12/10 04:44:24;;;;;;;40.58;23.30;;;3.60;68.70;;;;;;5025879;28;19920;-53
2022/12/10 04:46:51;;;;;;;47.13;26.02;;;3.60;68.10;;;;;;5011397;28;20045;-50
2022/12/10 04:49:18;;;;;;;46.25;24.40;;;3.60;68.20;;;;;;5021957;28;20048;-49
2022/12/10 04:51:45;;;;;;;48.42;25.90;;;3.60;68.30;;;;;;5010377;28;20065;-49
2022/12/10 04:54:13;;;;;;;55.95;25.08;;;3.60;68.30;;;;;;5007698;28;20049;-49
2022/12/10 04:56:43;;;;;;;48.65;26.27;;;3.60;68.30;;;;;;5010866;28;20049;-48
2022/12/10 04:59:10;;;;;;;43.13;24.70;;;3.70;68.30;;;;;;5010130;28;20052;-52
2022/12/10 05:01:37;;;;;;;50.45;26.27;;;3.70;68.30;;;;;;5009458;28;20120;-50
2022/12/10 05:04:13;;;;;;;47.50;25.05;;;3.70;68.30;;;;;;5018556;28;20085;-54
2022/12/10 05:06:39;;;;;;;46.83;25.77;;;3.70;69.00;;;;;;5033998;28;20493;-50
2022/12/10 05:09:06;;;;;;;46.42;25.85;;;3.70;68.30;;;;;;5020389;28;20038;-52
2022/12/10 05:11:38;;;;;;;51.50;28.30;;;3.70;68.40;;;;;;5025059;28;20049;-49
2022/12/10 05:14:11;;;;;;;53.13;28.17;;;3.70;68.40;;;;;;5014157;28;20530;-50
2022/12/10 05:16:44;;;;;;;50.97;26.55;;;3.70;69.00;;;;;;5011753;28;20039;-50
2022/12/10 05:19:11;;;;;;;52.85;29.27;;;3.70;68.30;;;;;;5013418;28;20042;-50
2022/12/10 05:24:32;;;;;;;61.97;30.38;;;3.70;68.30;;;;;;5018559;28;20493;-48
2022/12/10 05:26:58;;;;;;;52.83;29.20;;;3.70;68.30;;;;;;5017622;28;20395;-50
2022/12/10 05:29:42;;;;;;;56.72;29.15;;;3.70;68.20;;;;;;5024222;28;20115;-53
2022/12/10 05:32:16;;;;;;;56.42;28.67;;;3.70;68.40;;;;;;5031070;28;20133;-51
2022/12/10 05:34:43;;;;;;;54.20;27.73;;;3.70;68.40;;;;;;5023454;28;20498;-50
2022/12/10 05:37:15;;;;;;;56.22;29.58;;;3.70;68.30;;;;;;5023813;28;20044;-50
2022/12/10 05:39:47;;;;;;;60.25;29.90;;;3.60;68.30;;;;;;5010865;28;20041;-54
2022/12/10 05:42:16;;;;;;;62.35;31.42;;;3.70;68.50;;;;;;5005739;28;20042;-49
2022/12/10 05:44:43;;;;;;;55.25;27.30;;;3.60;68.50;;;;;;5032147;28;20080;-50
2022/12/10 05:47:12;;;;;;;67.45;31.90;;;3.60;68.60;;;;;;5018114;28;20052;-54
2022/12/10 05:49:39;;;;;;;60.33;29.48;;;3.70;68.80;;;;;;5022842;28;20117;-52
2022/12/10 05:52:17;;;;;;;63.03;32.22;;;3.60;68.80;;;;;;5013604;28;20061;-54
2022/12/10 05:54:47;;;;;;;62.97;31.25;;;3.70;68.90;;;;;;5010146;28;20490;-50
2022/12/10 05:57:13;;;;;;;62.85;31.50;;;3.70;68.90;;;;;;5004706;28;20061;-51
2022/12/10 05:59:59;;;;;;;66.95;30.83;;;3.70;68.90;;;;;;5019403;28;20144;-53
2022/12/10 06:02:37;;;;;;;62.70;30.45;;;3.70;68.80;;;;;;5033058;28;20536;-54
2022/12/10 06:05:09;;;;;;;65.65;30.77;;;3.70;68.80;;;;;;5032485;28;20116;-52
2022/12/10 06:07:38;;;;;;;60.97;30.48;;;3.70;68.90;;;;;;5010023;28;20103;-49
2022/12/10 06:10:14;;;;;;;56.08;30.13;;;3.70;68.90;;;;;;5020785;28;20565;-51
2022/12/10 06:12:43;;;;;;;56.45;31.05;;;3.70;68.80;;;;;;5012558;28;20120;-54
2022/12/10 06:15:11;;;;;;;58.75;30.58;;;3.70;68.60;;;;;;5008813;28;20041;-51
2022/12/10 06:17:40;;;;;;;58.28;29.60;;;3.70;68.60;;;;;;5015343;28;20046;-49
2022/12/10 06:20:08;;;;;;;65.97;31.27;;;3.70;68.80;;;;;;5015328;28;20064;-51
2022/12/10 06:22:35;;;;;;;64.93;31.55;;;3.70;68.90;;;;;;5011546;28;20050;-48
2022/12/10 06:25:06;;;;;;;62.88;31.75;;;3.70;69.00;;;;;;5006447;28;20069;-50
2022/12/10 06:27:38;;;;;;;58.45;28.55;;;3.70;69.00;;;;;;5013658;28;20052;-51
2022/12/10 06:30:08;;;;;;;56.35;29.77;;;3.70;69.10;;;;;;5020883;28;20116;-52
2022/12/10 06:32:35;;;;;;;61.65;31.75;;;3.70;69.20;;;;;;5024099;28;20096;-51
2022/12/10 06:35:04;;;;;;;60.28;27.92;;;3.70;69.20;;;;;;5011785;28;20549;-53
2022/12/10 06:37:34;;;;;;;55.17;27.77;;;3.70;69.10;;;;;;4998744;28;20033;-50
2022/12/10 06:40:04;;;;;;;44.95;21.45;;;3.70;69.00;;;;;;5020156;28;20057;-51
2022/12/10 06:42:31;;;;;;;56.88;28.67;;;3.70;69.10;;;;;;5032359;28;20047;-50
2022/12/10 06:44:57;;;;;;;58.15;27.58;;;3.70;69.00;;;;;;5026215;28;20042;-51
2022/12/10 06:47:28;;;;;;;57.58;26.48;;;3.70;69.00;;;;;;5023185;28;20512;-49
2022/12/10 06:49:55;;;;;;;52.85;26.00;;;3.70;68.90;;;;;;5002371;28;20052;-49
2022/12/10 06:52:24;;;;;;;51.35;24.77;;;3.70;69.00;;;;;;5009958;28;20112;-53
2022/12/10 06:54:53;;;;;;;50.42;25.30;;;3.70;69.00;;;;;;5010545;28;20730;-51
2022/12/10 06:57:20;;;;;;;51.85;26.58;;;3.70;69.00;;;;;;5018717;28;20465;-50
2022/12/10 06:59:49;;;;;;;57.85;26.33;;;3.80;68.90;;;;;;5012627;28;20387;-52
2022/12/10 07:02:16;;;;;;;50.03;25.65;;;3.70;68.80;;;;;;5011980;28;20529;-51
2022/12/10 07:04:48;;;;;;;54.50;27.13;;;3.70;68.80;;;;;;5013024;28;20041;-51
2022/12/10 07:07:17;;;;;;;52.58;26.65;;;3.70;68.90;;;;;;5019104;28;20418;-51
2022/12/10 07:09:44;;;;;;;47.10;23.52;;;3.70;68.90;;;;;;5018821;28;20417;-50
2022/12/10 07:12:10;;;;;;;51.00;26.08;;;3.70;68.90;;;;;;5006719;28;20486;-51
2022/12/10 07:14:37;;;;;;;52.38;27.40;;;3.70;69.00;;;;;;5017157;28;20042;-52
2022/12/10 07:17:05;;;;;;;52.67;25.40;;;3.70;69.10;;;;;;5012718;28;20038;-53
2022/12/10 07:19:34;;;;;;;53.58;26.15;;;3.70;69.10;;;;;;5008051;28;20046;-51
2022/12/10 07:22:03;;;;;;;52.72;27.35;;;3.70;68.90;;;;;;5018484;28;20053;-48
2022/12/10 07:24:32;;;;;;;53.13;26.02;;;3.70;68.90;;;;;;5005082;28;20081;-49
2022/12/10 07:26:59;;;;;;;54.40;25.40;;;3.70;69.00;;;;;;5017807;28;20038;-51
2022/12/10 07:29:28;;;;;;;46.20;24.40;;;3.60;69.00;;;;;;5017814;28;20045;-50
2022/12/10 07:31:55;;;;;;;47.10;24.90;;;3.70;69.10;;;;;;5002440;28;20133;-53
2022/12/10 07:34:22;;;;;;;53.80;26.05;;;3.70;69.10;;;;;;5018106;28;20072;-50
2022/12/10 07:36:49;;;;;;;54.05;25.38;;;3.70;69.20;;;;;;5018128;28;20129;-52
2022/12/10 07:39:18;;;;;;;58.40;28.52;;;3.70;69.20;;;;;;5007506;28;20041;-50
2022/12/10 07:41:52;;;;;;;54.33;26.27;;;3.70;69.20;;;;;;5015311;28;20514;-53
2022/12/10 07:44:21;;;;;;;58.67;25.33;;;3.70;69.20;;;;;;5018182;28;20041;-49
2022/12/10 07:46:50;;;;;;;56.55;27.10;;;3.70;69.30;;;;;;5004285;28;20144;-53
2022/12/10 07:49:17;;;;;;;53.42;24.80;;;3.80;69.40;;;;;;5010925;28;20764;-52
2022/12/10 07:51:48;;;;;;;50.08;24.15;;;3.70;69.20;;;;;;5012728;28;20083;-51
2022/12/10 07:54:17;;;;;;;48.20;23.40;;;3.80;69.10;;;;;;5016884;28;20044;-49
2022/12/10 07:56:44;;;;;;;45.75;23.20;;;3.80;69.00;;;;;;5019939;28;20049;-50
2022/12/10 07:59:13;;;;;;;46.15;23.05;;;3.80;68.90;;;;;;4993997;28;20100;-49
2022/12/10 08:01:40;;;;;;;47.25;24.33;;;3.80;68.90;;;;;;5004305;28;20038;-52
2022/12/10 08:04:07;;;;;;;44.78;24.88;;;3.80;68.90;;;;;;5004406;28;20044;-50
2022/12/10 08:06:34;;;;;;;43.53;22.60;;;3.80;68.90;;;;;;5018828;28;20048;-54
2022/12/10 08:09:01;;;;;;;44.85;24.35;;;3.80;68.90;;;;;;5001505;28;20522;-50
2022/12/10 08:11:28;;;;;;;47.95;22.95;;;3.80;68.80;;;;;;5004529;28;20042;-50
2022/12/10 08:13:55;;;;;;;52.63;25.60;;;3.80;68.80;;;;;;5008238;28;20128;-52
2022/12/10 08:16:26;;;;;;;45.28;25.08;;;3.80;68.80;;;;;;4998993;28;20046;-53
2022/12/10 08:18:55;;;;;;;49.40;24.52;;;3.80;68.80;;;;;;5012686;28;20049;-52
2022/12/10 08:21:26;;;;;;;46.10;23.83;;;3.80;68.80;;;;;;5001842;28;20041;-51
2022/12/10 08:23:54;;;;;;;47.67;23.48;;;3.80;68.80;;;;;;5007188;28;20048;-51
2022/12/10 08:26:24;;;;;;;49.25;24.08;;;3.80;68.80;;;;;;5021679;28;20495;-54
2022/12/10 08:28:51;;;;;;;49.47;25.58;;;3.80;68.80;;;;;;5006391;28;20064;-53
2022/12/10 08:31:19;;;;;;;50.83;25.60;;;3.90;69.00;;;;;;5012594;28;20413;-54
2022/12/10 08:33:45;;;;;;;49.20;24.58;;;3.90;69.00;;;;;;5014086;28;20041;-52
2022/12/10 08:36:15;;;;;;;58.28;24.92;;;3.90;68.90;;;;;;5009156;28;20053;-51
2022/12/10 08:38:43;;;;;;;53.03;26.67;;;3.90;68.80;;;;;;5009652;28;20111;-51
2022/12/10 08:41:17;;;;;;;51.42;25.02;;;3.90;68.70;;;;;;5020281;28;20053;-52
2022/12/10 08:43:44;;;;;;;58.20;27.80;;;3.90;68.80;;;;;;5021497;28;20041;-50
2022/12/10 08:46:12;;;;;;;53.08;25.08;;;3.90;68.90;;;;;;5015359;28;20630;-54
2022/12/10 08:48:40;;;;;;;49.17;26.30;;;3.90;69.00;;;;;;4981692;28;20127;-54
2022/12/10 08:51:08;;;;;;;53.15;25.40;;;3.90;69.10;;;;;;5022080;28;20056;-53
2022/12/10 08:53:35;;;;;;;53.25;26.40;;;3.90;69.10;;;;;;5010921;28;20065;-50
2022/12/10 08:56:02;;;;;;;51.20;25.40;;;3.90;69.00;;;;;;5013483;28;20052;-52
2022/12/10 08:58:32;;;;;;;46.80;23.70;;;4.00;68.90;;;;;;5000856;28;20413;-50
2022/12/10 09:01:01;;;;;;;50.70;26.05;;;4.00;68.90;;;;;;5009263;28;20038;-52
2022/12/10 09:03:27;;;;;;;50.53;25.15;;;4.00;68.90;;;;;;5007205;28;20045;-54
2022/12/10 09:05:54;;;;;;;53.00;27.30;;;4.00;68.90;;;;;;5006406;28;20121;-50
2022/12/10 09:08:21;;;;;;;49.25;24.55;;;4.10;69.00;;;;;;5022216;28;20042;-50
2022/12/10 09:10:47;;;;;;;51.47;24.80;;;4.10;69.00;;;;;;5011706;28;20042;-51
2022/12/10 09:13:15;;;;;;;53.72;25.63;;;4.10;68.80;;;;;;5012014;28;20129;-48
2022/12/10 09:15:50;;;;;;;50.53;25.55;;;4.10;68.70;;;;;;5007747;28;20046;-53
2022/12/10 09:18:17;;;;;;;53.63;25.45;;;4.10;68.60;;;;;;5020331;28;20073;-53
2022/12/10 09:20:43;;;;;;;49.95;26.00;;;4.10;68.60;;;;;;5020023;28;20048;-54
2022/12/10 09:23:10;;;;;;;54.05;25.80;;;4.20;68.60;;;;;;5009451;28;20037;-50
2022/12/10 09:25:37;;;;;;;47.88;24.08;;;4.20;68.70;;;;;;5012632;28;20050;-54
2022/12/10 09:28:03;;;;;;;50.90;25.17;;;4.20;68.60;;;;;;5012216;28;20042;-53
2022/12/10 09:30:30;;;;;;;52.25;25.60;;;4.20;68.60;;;;;;5025581;28;20526;-50
2022/12/10 09:32:58;;;;;;;47.40;25.85;;;4.20;68.80;;;;;;5017122;28;20034;-54
2022/12/10 09:35:24;;;;;;;47.75;25.92;;;4.20;68.90;;;;;;5015470;28;20041;-52
2022/12/10 09:37:51;;;;;;;46.05;24.83;;;4.30;69.00;;;;;;5012441;28;20044;-50
2022/12/10 09:40:29;;;;;;;53.28;24.55;;;4.30;68.90;;;;;;5010833;28;20066;-50
2022/12/10 09:43:14;;;;;;;45.22;23.73;;;4.30;68.90;;;;;;5010404;28;20142;-49
2022/12/10 09:46:01;;;;;;;42.85;22.33;;;4.40;68.90;;;;;;5006296;28;20050;-50
2022/12/10 09:48:42;;;;;;;49.20;25.15;;;4.50;68.70;;;;;;5011154;28;20053;-50
2022/12/10 09:51:18;;;;;;;43.10;20.90;;;4.50;68.60;;;;;;5010384;28;20046;-54
2022/12/10 09:53:47;;;;;;;49.08;22.30;;;4.50;68.60;;;;;;5017818;28;20412;-51
2022/12/10 09:56:24;;;;;;;48.90;23.60;;;4.50;68.60;;;;;;5014443;28;20066;-53
2022/12/10 09:58:51;;;;;;;48.60;23.25;;;4.50;68.60;;;;;;5004239;28;20038;-50
2022/12/10 10:01:24;;;;;;;44.95;23.73;;;4.60;68.70;;;;;;5010352;28;20391;-50
2022/12/10 10:03:53;;;;;;;51.55;23.90;;;4.60;68.60;;;;;;5012297;28;20735;-52
2022/12/10 10:06:21;;;;;;;48.97;24.60;;;4.60;69.10;;;;;;5031164;28;20037;-50
2022/12/10 10:08:58;;;;;;;46.17;24.73;;;4.70;68.60;;;;;;5031824;28;20120;-54
2022/12/10 10:11:30;;;;;;;48.83;23.88;;;4.70;68.50;;;;;;5014658;28;20091;-54
2022/12/10 10:14:09;;;;;;;48.45;26.17;;;4.80;68.50;;;;;;5015179;28;20116;-54
2022/12/10 10:16:53;;;;;;;48.80;24.90;;;4.80;68.40;;;;;;4993569;28;20125;-54
2022/12/10 10:19:29;;;;;;;49.70;25.23;;;4.90;68.10;;;;;;5004563;28;20043;-51
2022/12/10 10:21:57;;;;;;;46.85;26.13;;;4.90;68.00;;;;;;5015347;28;20037;-52
2022/12/10 10:24:41;;;;;;;48.28;26.50;;;4.90;67.90;;;;;;5021420;28;20049;-51
2022/12/10 10:27:23;;;;;;;51.92;27.00;;;4.90;67.80;;;;;;5012454;28;20417;-52
2022/12/10 10:29:52;;;;;;;49.45;25.40;;;4.90;67.90;;;;;;5008780;28;20046;-52
2022/12/10 10:32:25;;;;;;;55.05;27.30;;;4.90;68.00;;;;;;5017199;28;20042;-54
2022/12/10 10:34:57;;;;;;;52.97;27.98;;;5.00;68.10;;;;;;5021631;28;20386;-51
2022/12/10 10:37:37;;;;;;;46.30;24.60;;;5.00;68.10;;;;;;5010877;28;20050;-54
2022/12/10 10:40:27;;;;;;;47.53;25.73;;;5.00;67.80;;;;;;5016811;28;20816;-52
2022/12/10 10:42:59;;;;;;;49.28;25.05;;;5.10;67.50;;;;;;5015082;28;20101;-49
2022/12/10 10:45:39;;;;;;;53.22;26.23;;;5.00;67.50;;;;;;5012183;28;20048;-52
2022/12/10 10:48:23;;;;;;;53.35;28.08;;;5.10;67.40;;;;;;5017344;28;20049;-54
2022/12/10 10:51:05;;;;;;;48.15;24.27;;;5.00;67.40;;;;;;5023011;28;20041;-54
2022/12/10 10:53:37;;;;;;;47.00;25.45;;;5.10;67.50;;;;;;5019451;28;20121;-49
2022/12/10 10:56:16;;;;;;;43.72;24.58;;;5.10;67.50;;;;;;5006294;28;20049;-50
2022/12/10 10:58:51;;;;;;;47.65;24.88;;;5.00;67.30;;;;;;5003916;28;20050;-50
2022/12/10 11:01:23;;;;;;;46.60;24.25;;;5.00;67.40;;;;;;5015869;28;20115;-52
2022/12/10 11:03:58;;;;;;;48.33;24.15;;;5.00;67.40;;;;;;5012434;28;20445;-53
2022/12/10 11:06:25;;;;;;;47.38;25.05;;;5.10;67.50;;;;;;5023055;28;20467;-54
2022/12/10 11:08:57;;;;;;;48.58;25.80;;;5.00;67.60;;;;;;5006444;28;20041;-49
2022/12/10 11:11:50;;;;;;;51.92;25.25;;;5.10;67.80;;;;;;5011260;28;20050;-51
2022/12/10 11:14:43;;;;;;;51.55;24.20;;;5.10;67.70;;;;;;5015645;28;20067;-52
2022/12/10 11:17:10;;;;;;;47.22;25.42;;;5.10;67.40;;;;;;5011493;28;20080;-54
2022/12/10 11:20:13;;;;;;;47.15;25.52;;;5.20;67.60;;;;;;5015489;28;20041;-54
2022/12/10 11:22:58;;;;;;;45.22;22.85;;;5.20;67.50;;;;;;5026114;28;20038;-54
2022/12/10 11:25:34;;;;;;;48.53;25.00;;;5.20;67.70;;;;;;5012352;28;20042;-54
2022/12/10 11:30:37;;;;;;;48.83;25.95;;;5.30;67.60;;;;;;4987758;28;20122;-51
2022/12/10 11:33:20;;;;;;;46.30;24.30;;;5.40;67.50;;;;;;4991125;28;20399;-51
2022/12/10 11:36:11;;;;;;;48.58;25.65;;;5.40;67.10;;;;;;4992301;28;20046;-48
2022/12/10 11:38:51;;;;;;;50.70;25.65;;;5.40;67.10;;;;;;4983009;28;20042;-48
2022/12/10 11:41:31;;;;;;;47.92;25.55;;;5.50;67.00;;;;;;4994466;28;20035;-49
2022/12/10 11:44:08;;;;;;;48.63;25.77;;;5.50;66.80;;;;;;4995798;28;20045;-51
2022/12/10 11:47:03;;;;;;;50.47;26.33;;;5.50;66.60;;;;;;4994094;28;20618;-52
2022/12/10 11:50:02;;;;;;;53.45;26.60;;;5.50;66.50;;;;;;4998542;28;20042;-53
2022/12/10 11:53:00;;;;;;;47.28;25.77;;;5.50;66.80;;;;;;4979504;28;20060;-52
2022/12/10 11:55:47;;;;;;;47.40;25.73;;;5.50;66.90;;;;;;4991742;28;20039;-54
2022/12/10 11:58:44;;;;;;;52.53;27.73;;;5.50;66.90;;;;;;5003201;28;20540;-52
2022/12/10 12:01:27;;;;;;;49.50;27.50;;;5.50;66.50;;;;;;4989689;28;20117;-50
2022/12/10 12:04:21;;;;;;;47.10;25.15;;;5.50;66.60;;;;;;4993068;28;20046;-49
2022/12/10 12:07:05;;;;;;;49.83;25.42;;;5.50;66.50;;;;;;4980689;28;20042;-49
2022/12/10 12:09:47;;;;;;;51.45;26.50;;;5.50;66.60;;;;;;4992413;28;20048;-54
2022/12/10 12:12:34;;;;;;;50.95;27.98;;;5.60;66.90;;;;;;4993953;28;20182;-50
2022/12/10 12:15:29;;;;;;;56.83;30.98;;;5.60;66.60;;;;;;5006984;28;20125;-51
2022/12/10 12:18:04;;;;;;;53.05;29.48;;;5.60;66.60;;;;;;4971036;28;20078;-52
2022/12/10 12:20:45;;;;;;;54.65;30.08;;;5.60;66.60;;;;;;4975819;28;20034;-51
2022/12/10 12:23:30;;;;;;;51.80;27.83;;;5.60;66.20;;;;;;4986683;28;20414;-49
2022/12/10 12:26:08;;;;;;;54.33;28.98;;;5.50;66.30;;;;;;4996727;28;20049;-50
2022/12/10 12:28:46;;;;;;;55.97;28.80;;;5.60;66.40;;;;;;4989628;28;20045;-53
2022/12/10 12:31:37;;;;;;;55.70;29.30;;;5.50;66.40;;;;;;4989540;28;20038;-52
2022/12/10 12:34:21;;;;;;;55.72;31.23;;;5.50;66.50;;;;;;4997593;28;20541;-52
2022/12/10 12:36:48;;;;;;;58.65;28.48;;;5.50;66.50;;;;;;4956956;28;20121;-52
2022/12/10 12:39:30;;;;;;;61.60;31.35;;;5.50;66.60;;;;;;4984593;28;20043;-48
2022/12/10 12:42:21;;;;;;;54.83;30.13;;;5.50;66.70;;;;;;4994445;28;20446;-50
2022/12/10 12:45:18;;;;;;;56.67;29.90;;;5.50;66.50;;;;;;4971139;28;20118;-53
2022/12/10 12:48:16;;;;;;;53.42;28.60;;;5.50;66.50;;;;;;4986609;28;20044;-54
2022/12/10 12:51:03;;;;;;;50.58;28.55;;;5.60;66.80;;;;;;4985180;28;22398;-53
2022/12/10 12:53:29;;;;;;;52.85;28.08;;;5.60;66.80;;;;;;4978207;28;20060;-50
2022/12/10 12:56:17;;;;;;;50.72;28.08;;;5.60;67.00;;;;;;4995937;28;20045;-53
2022/12/10 12:59:16;;;;;;;51.15;28.83;;;5.60;66.90;;;;;;4980423;28;20062;-53
2022/12/10 13:02:08;;;;;;;49.55;26.27;;;5.70;66.90;;;;;;4992816;28;20479;-53
2022/12/10 13:04:35;;;;;;;55.13;28.40;;;5.70;66.80;;;;;;4992396;28;20040;-50
2022/12/10 13:07:32;;;;;;;55.50;29.52;;;5.70;66.90;;;;;;4988875;28;20043;-55
2022/12/10 13:10:14;;;;;;;53.80;28.55;;;5.70;66.70;;;;;;4992920;28;20068;-55
2022/12/10 13:12:40;;;;;;;44.50;26.38;;;5.80;66.70;;;;;;4993611;28;20088;-52
2022/12/10 13:15:21;;;;;;;54.53;28.92;;;5.80;67.50;;;;;;4997312;28;20422;-52
2022/12/10 13:18:18;;;;;;;46.78;26.50;;;5.80;66.70;;;;;;4988635;28;20069;-51
2022/12/10 13:21:28;;;;;;;57.15;30.25;;;5.80;66.60;;;;;;4991522;28;20566;-52
2022/12/10 13:24:11;;;;;;;55.10;28.42;;;5.80;66.30;;;;;;4987951;28;20039;-51
2022/12/10 13:27:02;;;;;;;55.30;29.30;;;5.80;66.20;;;;;;4990334;28;20040;-49
2022/12/10 13:29:29;;;;;;;54.15;30.27;;;5.70;66.30;;;;;;5003977;28;20050;-49